sensor_id;sensor_type;location;lat;lon;timestamp;temperature;humidity
59282;DHT22;45054;52.062;10.010;2023-08-01T00:01:47;16.40;99.90
59282;DHT22;45054;52.062;10.010;2023-08-01T00:04:12;16.40;99.90
59282;DHT22;45054;52.062;10.010;2023-08-01T00:06:38;16.40;99.90
59282;DHT22;45054;52.062;10.010;2023-08-01T00:09:05;16.40;99.90
59282;DHT22;45054;52.062;10.010;2023-08-01T00:11:30;16.40;99.90
59282;DHT22;45054;52.062;10.010;2023-08-01T00:13:56;16.40;99.90
59282;DHT22;45054;52.062;10.010;2023-08-01T00:16:21;16.30;99.90
59282;DHT22;45054;52.062;10.010;2023-08-01T00:18:46;16.30;99.90
59282;DHT22;45054;52.062;10.010;2023-08-01T00:21:12;16.40;99.90
59282;DHT22;45054;52.062;10.010;2023-08-01T00:23:37;16.40;99.90
59282;DHT22;45054;52.062;10.010;2023-08-01T00:26:04;16.40;99.90
59282;DHT22;45054;52.062;10.010;2023-08-01T00:28:30;16.40;99.90
59282;DHT22;45054;52.062;10.010;2023-08-01T00:31:01;16.40;99.90
59282;DHT22;45054;52.062;10.010;2023-08-01T00:33:26;16.40;99.90
59282;DHT22;45054;52.062;10.010;2023-08-01T00:35:53;16.40;99.90
59282;DHT22;45054;52.062;10.010;2023-08-01T00:38:18;16.40;99.90
59282;DHT22;45054;52.062;10.010;2023-08-01T00:40:44;16.40;99.90
59282;DHT22;45054;52.062;10.010;2023-08-01T00:43:10;16.30;99.90
59282;DHT22;45054;52.062;10.010;2023-08-01T00:45:36;16.40;99.90
59282;DHT22;45054;52.062;10.010;2023-08-01T00:48:01;16.50;99.90
59282;DHT22;45054;52.062;10.010;2023-08-01T00:50:27;16.50;99.90
59282;DHT22;45054;52.062;10.010;2023-08-01T00:52:53;16.50;99.90
59282;DHT22;45054;52.062;10.010;2023-08-01T00:55:18;16.50;99.90
59282;DHT22;45054;52.062;10.010;2023-08-01T00:57:44;16.50;99.90
59282;DHT22;45054;52.062;10.010;2023-08-01T01:00:11;16.50;99.90
59282;DHT22;45054;52.062;10.010;2023-08-01T01:02:37;16.50;99.90
59282;DHT22;45054;52.062;10.010;2023-08-01T01:05:03;16.50;99.90
59282;DHT22;45054;52.062;10.010;2023-08-01T01:07:29;16.50;99.90
59282;DHT22;45054;52.062;10.010;2023-08-01T01:09:54;16.50;99.90
59282;DHT22;45054;52.062;10.010;2023-08-01T01:12:20;16.40;99.90
59282;DHT22;45054;52.062;10.010;2023-08-01T01:14:45;16.40;99.90
59282;DHT22;45054;52.062;10.010;2023-08-01T01:17:13;16.40;99.90
59282;DHT22;45054;52.062;10.010;2023-08-01T01:19:38;16.30;99.90
59282;DHT22;45054;52.062;10.010;2023-08-01T01:22:05;16.20;99.90
59282;DHT22;45054;52.062;10.010;2023-08-01T01:24:31;16.20;99.90
59282;DHT22;45054;52.062;10.010;2023-08-01T01:26:58;16.20;99.90
59282;DHT22;45054;52.062;10.010;2023-08-01T01:29:23;16.20;99.90
59282;DHT22;45054;52.062;10.010;2023-08-01T01:31:49;16.20;99.90
59282;DHT22;45054;52.062;10.010;2023-08-01T01:34:15;16.30;99.90
59282;DHT22;45054;52.062;10.010;2023-08-01T01:36:40;16.20;99.90
59282;DHT22;45054;52.062;10.010;2023-08-01T01:39:07;16.20;99.90
59282;DHT22;45054;52.062;10.010;2023-08-01T01:41:33;16.20;99.90
59282;DHT22;45054;52.062;10.010;2023-08-01T01:43:58;16.20;99.90
59282;DHT22;45054;52.062;10.010;2023-08-01T01:46:24;16.30;99.90
59282;DHT22;45054;52.062;10.010;2023-08-01T01:48:49;16.30;99.90
59282;DHT22;45054;52.062;10.010;2023-08-01T01:51:14;16.30;99.90
59282;DHT22;45054;52.062;10.010;2023-08-01T01:53:40;16.30;99.90
59282;DHT22;45054;52.062;10.010;2023-08-01T01:56:07;16.20;99.90
59282;DHT22;45054;52.062;10.010;2023-08-01T01:58:32;16.30;99.90
59282;DHT22;45054;52.062;10.010;2023-08-01T02:00:58;16.30;99.90
59282;DHT22;45054;52.062;10.010;2023-08-01T02:03:23;16.20;99.90
59282;DHT22;45054;52.062;10.010;2023-08-01T02:05:49;16.20;99.90
59282;DHT22;45054;52.062;10.010;2023-08-01T02:08:14;16.20;99.90
59282;DHT22;45054;52.062;10.010;2023-08-01T02:10:40;16.20;99.90
59282;DHT22;45054;52.062;10.010;2023-08-01T02:13:06;16.20;99.90
59282;DHT22;45054;52.062;10.010;2023-08-01T02:15:32;16.20;99.90
59282;DHT22;45054;52.062;10.010;2023-08-01T02:17:57;16.20;99.90
59282;DHT22;45054;52.062;10.010;2023-08-01T02:20:23;16.20;99.90
59282;DHT22;45054;52.062;10.010;2023-08-01T02:22:48;16.20;99.90
59282;DHT22;45054;52.062;10.010;2023-08-01T02:25:14;16.20;99.90
59282;DHT22;45054;52.062;10.010;2023-08-01T02:27:39;16.30;99.90
59282;DHT22;45054;52.062;10.010;2023-08-01T02:30:07;16.20;99.90
59282;DHT22;45054;52.062;10.010;2023-08-01T02:32:32;16.20;99.90
59282;DHT22;45054;52.062;10.010;2023-08-01T02:34:58;16.20;99.90
59282;DHT22;45054;52.062;10.010;2023-08-01T02:37:23;16.20;99.90
59282;DHT22;45054;52.062;10.010;2023-08-01T02:39:49;16.20;99.90
59282;DHT22;45054;52.062;10.010;2023-08-01T02:42:14;16.20;99.90
59282;DHT22;45054;52.062;10.010;2023-08-01T02:44:40;16.20;99.90
59282;DHT22;45054;52.062;10.010;2023-08-01T02:47:06;16.20;99.90
59282;DHT22;45054;52.062;10.010;2023-08-01T02:49:32;16.20;99.90
59282;DHT22;45054;52.062;10.010;2023-08-01T02:51:57;16.20;99.90
59282;DHT22;45054;52.062;10.010;2023-08-01T02:54:23;16.20;99.90
59282;DHT22;45054;52.062;10.010;2023-08-01T02:56:48;16.20;99.90
59282;DHT22;45054;52.062;10.010;2023-08-01T02:59:14;16.20;99.90
59282;DHT22;45054;52.062;10.010;2023-08-01T03:01:39;16.20;99.90
59282;DHT22;45054;52.062;10.010;2023-08-01T03:04:06;16.30;99.90
59282;DHT22;45054;52.062;10.010;2023-08-01T03:06:32;16.30;99.90
59282;DHT22;45054;52.062;10.010;2023-08-01T03:08:58;16.30;99.90
59282;DHT22;45054;52.062;10.010;2023-08-01T03:11:23;16.30;99.90
59282;DHT22;45054;52.062;10.010;2023-08-01T03:13:49;16.40;99.90
59282;DHT22;45054;52.062;10.010;2023-08-01T03:16:14;16.30;99.90
59282;DHT22;45054;52.062;10.010;2023-08-01T03:18:40;16.40;99.90
59282;DHT22;45054;52.062;10.010;2023-08-01T03:21:06;16.30;99.90
59282;DHT22;45054;52.062;10.010;2023-08-01T03:23:32;16.40;99.90
59282;DHT22;45054;52.062;10.010;2023-08-01T03:25:58;16.40;99.90
59282;DHT22;45054;52.062;10.010;2023-08-01T03:28:23;16.40;99.90
59282;DHT22;45054;52.062;10.010;2023-08-01T03:30:49;16.40;99.90
59282;DHT22;45054;52.062;10.010;2023-08-01T03:33:14;16.40;99.90
59282;DHT22;45054;52.062;10.010;2023-08-01T03:35:40;16.40;99.90
59282;DHT22;45054;52.062;10.010;2023-08-01T03:38:07;16.40;99.90
59282;DHT22;45054;52.062;10.010;2023-08-01T03:40:32;16.40;99.90
59282;DHT22;45054;52.062;10.010;2023-08-01T03:43:01;16.40;99.90
59282;DHT22;45054;52.062;10.010;2023-08-01T03:45:26;16.40;99.90
59282;DHT22;45054;52.062;10.010;2023-08-01T03:47:52;16.40;99.90
59282;DHT22;45054;52.062;10.010;2023-08-01T03:50:18;16.40;99.90
59282;DHT22;45054;52.062;10.010;2023-08-01T03:52:43;16.40;99.90
59282;DHT22;45054;52.062;10.010;2023-08-01T03:55:10;16.40;99.90
59282;DHT22;45054;52.062;10.010;2023-08-01T03:57:36;16.40;99.90
59282;DHT22;45054;52.062;10.010;2023-08-01T04:00:01;16.30;99.90
59282;DHT22;45054;52.062;10.010;2023-08-01T04:02:27;16.30;99.90
59282;DHT22;45054;52.062;10.010;2023-08-01T04:04:52;16.30;99.90
59282;DHT22;45054;52.062;10.010;2023-08-01T04:07:18;16.30;99.90
59282;DHT22;45054;52.062;10.010;2023-08-01T04:09:43;16.40;99.90
59282;DHT22;45054;52.062;10.010;2023-08-01T04:12:10;16.40;99.90
59282;DHT22;45054;52.062;10.010;2023-08-01T04:14:35;16.40;99.90
59282;DHT22;45054;52.062;10.010;2023-08-01T04:17:01;16.40;99.90
59282;DHT22;45054;52.062;10.010;2023-08-01T04:19:27;16.40;99.90
59282;DHT22;45054;52.062;10.010;2023-08-01T04:21:52;16.40;99.90
59282;DHT22;45054;52.062;10.010;2023-08-01T04:24:17;16.40;99.90
59282;DHT22;45054;52.062;10.010;2023-08-01T04:26:43;16.40;99.90
59282;DHT22;45054;52.062;10.010;2023-08-01T04:29:10;16.30;99.90
59282;DHT22;45054;52.062;10.010;2023-08-01T04:31:35;16.40;99.90
59282;DHT22;45054;52.062;10.010;2023-08-01T04:34:01;16.40;99.90
59282;DHT22;45054;52.062;10.010;2023-08-01T04:36:26;16.30;99.90
59282;DHT22;45054;52.062;10.010;2023-08-01T04:38:52;16.20;99.90
59282;DHT22;45054;52.062;10.010;2023-08-01T04:41:17;16.20;99.90
59282;DHT22;45054;52.062;10.010;2023-08-01T04:43:42;16.20;99.90
59282;DHT22;45054;52.062;10.010;2023-08-01T04:46:09;16.30;99.90
59282;DHT22;45054;52.062;10.010;2023-08-01T04:48:35;16.30;99.90
59282;DHT22;45054;52.062;10.010;2023-08-01T04:51:00;16.30;99.90
59282;DHT22;45054;52.062;10.010;2023-08-01T04:53:26;16.30;99.90
59282;DHT22;45054;52.062;10.010;2023-08-01T04:55:51;16.20;99.90
59282;DHT22;45054;52.062;10.010;2023-08-01T04:58:16;16.30;99.90
59282;DHT22;45054;52.062;10.010;2023-08-01T05:00:42;16.20;99.90
59282;DHT22;45054;52.062;10.010;2023-08-01T05:03:09;16.20;99.90
59282;DHT22;45054;52.062;10.010;2023-08-01T05:05:34;16.10;99.90
59282;DHT22;45054;52.062;10.010;2023-08-01T05:08:00;16.10;99.90
59282;DHT22;45054;52.062;10.010;2023-08-01T05:10:25;16.10;99.90
59282;DHT22;45054;52.062;10.010;2023-08-01T05:12:51;16.10;99.90
59282;DHT22;45054;52.062;10.010;2023-08-01T05:15:16;16.10;99.90
59282;DHT22;45054;52.062;10.010;2023-08-01T05:17:42;16.10;99.90
59282;DHT22;45054;52.062;10.010;2023-08-01T05:20:09;16.10;99.90
59282;DHT22;45054;52.062;10.010;2023-08-01T05:22:35;16.10;99.90
59282;DHT22;45054;52.062;10.010;2023-08-01T05:25:00;16.10;99.90
59282;DHT22;45054;52.062;10.010;2023-08-01T05:27:26;16.10;99.90
59282;DHT22;45054;52.062;10.010;2023-08-01T05:29:51;16.10;99.90
59282;DHT22;45054;52.062;10.010;2023-08-01T05:32:17;16.10;99.90
59282;DHT22;45054;52.062;10.010;2023-08-01T05:34:42;16.10;99.90
59282;DHT22;45054;52.062;10.010;2023-08-01T05:37:09;16.10;99.90
59282;DHT22;45054;52.062;10.010;2023-08-01T05:39:34;16.10;99.90
59282;DHT22;45054;52.062;10.010;2023-08-01T05:42:00;16.10;99.90
59282;DHT22;45054;52.062;10.010;2023-08-01T05:44:25;16.10;99.90
59282;DHT22;45054;52.062;10.010;2023-08-01T05:46:51;16.10;99.90
59282;DHT22;45054;52.062;10.010;2023-08-01T05:49:16;16.10;99.90
59282;DHT22;45054;52.062;10.010;2023-08-01T05:51:42;16.20;99.90
59282;DHT22;45054;52.062;10.010;2023-08-01T05:54:08;16.20;99.90
59282;DHT22;45054;52.062;10.010;2023-08-01T05:56:34;16.20;99.90
59282;DHT22;45054;52.062;10.010;2023-08-01T05:58:59;16.20;99.90
59282;DHT22;45054;52.062;10.010;2023-08-01T06:01:25;16.10;99.90
59282;DHT22;45054;52.062;10.010;2023-08-01T06:03:50;16.10;99.90
59282;DHT22;45054;52.062;10.010;2023-08-01T06:06:16;16.10;99.90
59282;DHT22;45054;52.062;10.010;2023-08-01T06:08:41;16.10;99.90
59282;DHT22;45054;52.062;10.010;2023-08-01T06:11:08;16.20;99.90
59282;DHT22;45054;52.062;10.010;2023-08-01T06:13:34;16.20;99.90
59282;DHT22;45054;52.062;10.010;2023-08-01T06:15:59;16.10;99.90
59282;DHT22;45054;52.062;10.010;2023-08-01T06:18:24;16.10;99.90
59282;DHT22;45054;52.062;10.010;2023-08-01T06:20:50;16.20;99.90
59282;DHT22;45054;52.062;10.010;2023-08-01T06:23:15;16.20;99.90
59282;DHT22;45054;52.062;10.010;2023-08-01T06:25:41;16.30;99.90
59282;DHT22;45054;52.062;10.010;2023-08-01T06:28:08;16.30;99.90
59282;DHT22;45054;52.062;10.010;2023-08-01T06:30:33;16.40;99.90
59282;DHT22;45054;52.062;10.010;2023-08-01T06:32:58;16.30;99.90
59282;DHT22;45054;52.062;10.010;2023-08-01T06:35:24;16.20;99.90
59282;DHT22;45054;52.062;10.010;2023-08-01T06:37:49;16.10;99.90
59282;DHT22;45054;52.062;10.010;2023-08-01T06:40:15;16.10;99.90
59282;DHT22;45054;52.062;10.010;2023-08-01T06:42:40;16.20;99.90
59282;DHT22;45054;52.062;10.010;2023-08-01T06:45:08;16.30;99.90
59282;DHT22;45054;52.062;10.010;2023-08-01T06:47:34;16.20;99.90
59282;DHT22;45054;52.062;10.010;2023-08-01T06:49:59;16.10;99.90
59282;DHT22;45054;52.062;10.010;2023-08-01T06:52:25;16.20;99.90
59282;DHT22;45054;52.062;10.010;2023-08-01T06:54:50;16.20;99.90
59282;DHT22;45054;52.062;10.010;2023-08-01T06:57:16;16.20;99.90
59282;DHT22;45054;52.062;10.010;2023-08-01T06:59:41;16.20;99.90
59282;DHT22;45054;52.062;10.010;2023-08-01T07:02:08;16.20;99.90
59282;DHT22;45054;52.062;10.010;2023-08-01T07:04:34;16.20;99.90
59282;DHT22;45054;52.062;10.010;2023-08-01T07:06:59;16.30;99.90
59282;DHT22;45054;52.062;10.010;2023-08-01T07:09:24;16.20;99.90
59282;DHT22;45054;52.062;10.010;2023-08-01T07:11:50;16.30;99.90
59282;DHT22;45054;52.062;10.010;2023-08-01T07:14:15;16.30;99.90
59282;DHT22;45054;52.062;10.010;2023-08-01T07:16:41;16.40;99.90
59282;DHT22;45054;52.062;10.010;2023-08-01T07:19:08;16.40;99.90
59282;DHT22;45054;52.062;10.010;2023-08-01T07:21:33;16.30;99.90
59282;DHT22;45054;52.062;10.010;2023-08-01T07:23:59;16.30;99.90
59282;DHT22;45054;52.062;10.010;2023-08-01T07:26:24;16.30;99.90
59282;DHT22;45054;52.062;10.010;2023-08-01T07:28:49;16.30;99.90
59282;DHT22;45054;52.062;10.010;2023-08-01T07:31:15;16.30;99.90
59282;DHT22;45054;52.062;10.010;2023-08-01T07:33:40;16.30;99.90
59282;DHT22;45054;52.062;10.010;2023-08-01T07:36:07;16.30;99.90
59282;DHT22;45054;52.062;10.010;2023-08-01T07:38:33;16.30;99.90
59282;DHT22;45054;52.062;10.010;2023-08-01T07:41:03;16.40;99.90
59282;DHT22;45054;52.062;10.010;2023-08-01T07:43:29;16.40;99.90
59282;DHT22;45054;52.062;10.010;2023-08-01T07:45:55;16.40;99.90
59282;DHT22;45054;52.062;10.010;2023-08-01T07:48:20;16.40;99.90
59282;DHT22;45054;52.062;10.010;2023-08-01T07:50:46;16.30;99.90
59282;DHT22;45054;52.062;10.010;2023-08-01T07:53:13;16.30;99.90
59282;DHT22;45054;52.062;10.010;2023-08-01T07:55:38;16.20;99.90
59282;DHT22;45054;52.062;10.010;2023-08-01T07:58:04;16.20;99.90
59282;DHT22;45054;52.062;10.010;2023-08-01T08:00:30;16.20;99.90
59282;DHT22;45054;52.062;10.010;2023-08-01T08:02:55;16.10;99.90
59282;DHT22;45054;52.062;10.010;2023-08-01T08:05:21;16.00;99.90
59282;DHT22;45054;52.062;10.010;2023-08-01T08:07:46;16.10;99.90
59282;DHT22;45054;52.062;10.010;2023-08-01T08:10:13;16.00;99.90
59282;DHT22;45054;52.062;10.010;2023-08-01T08:12:38;16.00;99.90
59282;DHT22;45054;52.062;10.010;2023-08-01T08:15:04;16.00;99.90
59282;DHT22;45054;52.062;10.010;2023-08-01T08:17:30;16.00;99.90
59282;DHT22;45054;52.062;10.010;2023-08-01T08:19:55;16.00;99.90
59282;DHT22;45054;52.062;10.010;2023-08-01T08:22:21;16.00;99.90
59282;DHT22;45054;52.062;10.010;2023-08-01T08:24:46;16.00;99.90
59282;DHT22;45054;52.062;10.010;2023-08-01T08:27:13;16.10;99.90
59282;DHT22;45054;52.062;10.010;2023-08-01T08:29:39;16.20;99.90
59282;DHT22;45054;52.062;10.010;2023-08-01T08:32:05;16.20;99.90
59282;DHT22;45054;52.062;10.010;2023-08-01T08:34:30;16.20;99.90
59282;DHT22;45054;52.062;10.010;2023-08-01T08:36:56;16.30;99.90
59282;DHT22;45054;52.062;10.010;2023-08-01T08:39:21;16.40;99.90
59282;DHT22;45054;52.062;10.010;2023-08-01T08:41:48;16.50;99.90
59282;DHT22;45054;52.062;10.010;2023-08-01T08:44:15;16.50;99.90
59282;DHT22;45054;52.062;10.010;2023-08-01T08:46:41;16.60;99.90
59282;DHT22;45054;52.062;10.010;2023-08-01T08:49:07;16.70;99.90
59282;DHT22;45054;52.062;10.010;2023-08-01T08:51:33;16.70;99.90
59282;DHT22;45054;52.062;10.010;2023-08-01T08:53:59;16.70;99.90
59282;DHT22;45054;52.062;10.010;2023-08-01T08:56:26;16.90;99.90
59282;DHT22;45054;52.062;10.010;2023-08-01T08:58:52;17.00;99.90
59282;DHT22;45054;52.062;10.010;2023-08-01T09:01:19;17.20;99.90
59282;DHT22;45054;52.062;10.010;2023-08-01T09:03:44;17.40;99.90
59282;DHT22;45054;52.062;10.010;2023-08-01T09:06:11;17.50;99.90
59282;DHT22;45054;52.062;10.010;2023-08-01T09:08:38;17.60;99.90
59282;DHT22;45054;52.062;10.010;2023-08-01T09:11:05;17.60;99.90
59282;DHT22;45054;52.062;10.010;2023-08-01T09:13:30;17.60;99.90
59282;DHT22;45054;52.062;10.010;2023-08-01T09:15:56;17.50;99.90
59282;DHT22;45054;52.062;10.010;2023-08-01T09:18:23;17.40;99.90
59282;DHT22;45054;52.062;10.010;2023-08-01T09:20:49;17.40;99.90
59282;DHT22;45054;52.062;10.010;2023-08-01T09:23:14;17.40;99.90
59282;DHT22;45054;52.062;10.010;2023-08-01T09:25:40;17.50;99.90
59282;DHT22;45054;52.062;10.010;2023-08-01T09:28:14;17.50;99.90
59282;DHT22;45054;52.062;10.010;2023-08-01T09:30:45;17.70;99.90
59282;DHT22;45054;52.062;10.010;2023-08-01T09:33:10;17.80;99.90
59282;DHT22;45054;52.062;10.010;2023-08-01T09:35:39;17.80;99.90
59282;DHT22;45054;52.062;10.010;2023-08-01T09:38:04;17.80;99.90
59282;DHT22;45054;52.062;10.010;2023-08-01T09:40:35;17.80;99.90
59282;DHT22;45054;52.062;10.010;2023-08-01T09:43:01;17.70;99.90
59282;DHT22;45054;52.062;10.010;2023-08-01T09:45:26;17.90;99.90
59282;DHT22;45054;52.062;10.010;2023-08-01T09:47:52;18.00;99.90
59282;DHT22;45054;52.062;10.010;2023-08-01T09:50:20;18.10;99.90
59282;DHT22;45054;52.062;10.010;2023-08-01T09:52:47;18.10;99.90
59282;DHT22;45054;52.062;10.010;2023-08-01T09:55:12;18.10;99.90
59282;DHT22;45054;52.062;10.010;2023-08-01T09:57:38;18.00;99.90
59282;DHT22;45054;52.062;10.010;2023-08-01T10:00:05;18.10;99.90
59282;DHT22;45054;52.062;10.010;2023-08-01T10:02:31;18.20;99.90
59282;DHT22;45054;52.062;10.010;2023-08-01T10:04:57;18.20;99.90
59282;DHT22;45054;52.062;10.010;2023-08-01T10:07:24;18.20;99.90
59282;DHT22;45054;52.062;10.010;2023-08-01T10:09:52;18.20;99.90
59282;DHT22;45054;52.062;10.010;2023-08-01T10:12:18;18.30;99.90
59282;DHT22;45054;52.062;10.010;2023-08-01T10:14:43;18.40;99.90
59282;DHT22;45054;52.062;10.010;2023-08-01T10:17:09;18.50;99.90
59282;DHT22;45054;52.062;10.010;2023-08-01T10:19:35;18.40;99.90
59282;DHT22;45054;52.062;10.010;2023-08-01T10:22:02;18.50;99.90
59282;DHT22;45054;52.062;10.010;2023-08-01T10:24:28;18.50;99.90
59282;DHT22;45054;52.062;10.010;2023-08-01T10:26:56;18.50;99.90
59282;DHT22;45054;52.062;10.010;2023-08-01T10:29:22;18.60;99.90
59282;DHT22;45054;52.062;10.010;2023-08-01T10:31:50;18.60;99.90
59282;DHT22;45054;52.062;10.010;2023-08-01T10:34:16;18.60;99.90
59282;DHT22;45054;52.062;10.010;2023-08-01T10:36:52;18.70;99.90
59282;DHT22;45054;52.062;10.010;2023-08-01T10:39:20;18.90;99.90
59282;DHT22;45054;52.062;10.010;2023-08-01T10:41:46;19.10;99.90
59282;DHT22;45054;52.062;10.010;2023-08-01T10:44:23;19.10;99.90
59282;DHT22;45054;52.062;10.010;2023-08-01T10:46:49;19.10;99.90
59282;DHT22;45054;52.062;10.010;2023-08-01T10:49:14;19.10;99.90
59282;DHT22;45054;52.062;10.010;2023-08-01T10:51:40;18.90;99.90
59282;DHT22;45054;52.062;10.010;2023-08-01T10:54:06;18.80;99.90
59282;DHT22;45054;52.062;10.010;2023-08-01T10:56:32;18.70;99.90
59282;DHT22;45054;52.062;10.010;2023-08-01T10:58:57;18.70;99.90
59282;DHT22;45054;52.062;10.010;2023-08-01T11:01:24;18.80;99.90
59282;DHT22;45054;52.062;10.010;2023-08-01T11:03:50;18.70;99.90
59282;DHT22;45054;52.062;10.010;2023-08-01T11:06:15;18.60;99.90
59282;DHT22;45054;52.062;10.010;2023-08-01T11:08:41;18.60;99.90
59282;DHT22;45054;52.062;10.010;2023-08-01T11:11:07;18.60;99.90
59282;DHT22;45054;52.062;10.010;2023-08-01T11:13:33;18.80;99.90
59282;DHT22;45054;52.062;10.010;2023-08-01T11:15:58;18.90;99.90
59282;DHT22;45054;52.062;10.010;2023-08-01T11:18:25;19.00;99.90
59282;DHT22;45054;52.062;10.010;2023-08-01T11:20:51;19.10;99.90
59282;DHT22;45054;52.062;10.010;2023-08-01T11:23:16;19.00;99.90
59282;DHT22;45054;52.062;10.010;2023-08-01T11:25:42;18.90;99.90
59282;DHT22;45054;52.062;10.010;2023-08-01T11:28:09;18.80;99.90
59282;DHT22;45054;52.062;10.010;2023-08-01T11:30:35;18.70;99.90
59282;DHT22;45054;52.062;10.010;2023-08-01T11:33:00;18.50;99.90
59282;DHT22;45054;52.062;10.010;2023-08-01T11:35:28;18.40;99.90
59282;DHT22;45054;52.062;10.010;2023-08-01T11:37:53;18.30;99.90
59282;DHT22;45054;52.062;10.010;2023-08-01T11:40:19;18.20;99.90
59282;DHT22;45054;52.062;10.010;2023-08-01T11:42:47;18.20;99.90
59282;DHT22;45054;52.062;10.010;2023-08-01T11:45:13;18.30;99.90
59282;DHT22;45054;52.062;10.010;2023-08-01T11:47:44;18.40;99.90
59282;DHT22;45054;52.062;10.010;2023-08-01T11:50:09;18.70;99.90
59282;DHT22;45054;52.062;10.010;2023-08-01T11:52:36;18.90;99.90
59282;DHT22;45054;52.062;10.010;2023-08-01T11:55:02;19.00;99.90
59282;DHT22;45054;52.062;10.010;2023-08-01T11:57:27;19.10;99.90
59282;DHT22;45054;52.062;10.010;2023-08-01T11:59:54;19.30;99.90
59282;DHT22;45054;52.062;10.010;2023-08-01T12:02:20;19.60;99.90
59282;DHT22;45054;52.062;10.010;2023-08-01T12:04:46;19.80;99.90
59282;DHT22;45054;52.062;10.010;2023-08-01T12:07:12;19.70;99.90
59282;DHT22;45054;52.062;10.010;2023-08-01T12:09:39;19.60;99.90
59282;DHT22;45054;52.062;10.010;2023-08-01T12:12:04;19.40;99.90
59282;DHT22;45054;52.062;10.010;2023-08-01T12:14:30;19.20;99.90
59282;DHT22;45054;52.062;10.010;2023-08-01T12:16:55;19.10;99.90
59282;DHT22;45054;52.062;10.010;2023-08-01T12:19:21;19.00;99.90
59282;DHT22;45054;52.062;10.010;2023-08-01T12:21:47;18.80;99.90
59282;DHT22;45054;52.062;10.010;2023-08-01T12:24:13;18.60;99.90
59282;DHT22;45054;52.062;10.010;2023-08-01T12:26:39;18.60;99.90
59282;DHT22;45054;52.062;10.010;2023-08-01T12:29:05;18.40;99.90
59282;DHT22;45054;52.062;10.010;2023-08-01T12:31:30;18.50;99.90
59282;DHT22;45054;52.062;10.010;2023-08-01T12:33:56;18.50;99.90
59282;DHT22;45054;52.062;10.010;2023-08-01T12:36:21;18.60;99.90
59282;DHT22;45054;52.062;10.010;2023-08-01T12:38:47;18.70;99.90
59282;DHT22;45054;52.062;10.010;2023-08-01T12:41:12;18.90;99.90
59282;DHT22;45054;52.062;10.010;2023-08-01T12:43:39;19.00;99.90
59282;DHT22;45054;52.062;10.010;2023-08-01T12:46:05;19.00;99.90
59282;DHT22;45054;52.062;10.010;2023-08-01T12:48:30;19.00;99.90
59282;DHT22;45054;52.062;10.010;2023-08-01T12:50:56;19.00;99.90
59282;DHT22;45054;52.062;10.010;2023-08-01T12:53:21;19.00;99.90
59282;DHT22;45054;52.062;10.010;2023-08-01T12:55:47;18.80;99.90
59282;DHT22;45054;52.062;10.010;2023-08-01T12:58:13;18.60;99.90
59282;DHT22;45054;52.062;10.010;2023-08-01T13:00:40;18.50;99.90
59282;DHT22;45054;52.062;10.010;2023-08-01T13:03:06;18.10;99.90
59282;DHT22;45054;52.062;10.010;2023-08-01T13:05:31;17.50;99.90
59282;DHT22;45054;52.062;10.010;2023-08-01T13:07:58;17.10;99.90
59282;DHT22;45054;52.062;10.010;2023-08-01T13:10:24;16.80;99.90
59282;DHT22;45054;52.062;10.010;2023-08-01T13:12:49;16.60;99.90
59282;DHT22;45054;52.062;10.010;2023-08-01T13:15:15;16.50;99.90
59282;DHT22;45054;52.062;10.010;2023-08-01T13:17:42;16.40;99.90
59282;DHT22;45054;52.062;10.010;2023-08-01T13:20:07;16.30;99.90
59282;DHT22;45054;52.062;10.010;2023-08-01T13:22:33;16.10;99.90
59282;DHT22;45054;52.062;10.010;2023-08-01T13:24:58;16.10;99.90
59282;DHT22;45054;52.062;10.010;2023-08-01T13:27:24;16.20;99.90
59282;DHT22;45054;52.062;10.010;2023-08-01T13:29:50;16.20;99.90
59282;DHT22;45054;52.062;10.010;2023-08-01T13:32:15;16.20;99.90
59282;DHT22;45054;52.062;10.010;2023-08-01T13:34:42;16.30;99.90
59282;DHT22;45054;52.062;10.010;2023-08-01T13:37:07;16.50;99.90
59282;DHT22;45054;52.062;10.010;2023-08-01T13:39:33;16.50;99.90
59282;DHT22;45054;52.062;10.010;2023-08-01T13:41:58;16.70;99.90
59282;DHT22;45054;52.062;10.010;2023-08-01T13:44:24;16.70;99.90
59282;DHT22;45054;52.062;10.010;2023-08-01T13:46:49;16.90;99.90
59282;DHT22;45054;52.062;10.010;2023-08-01T13:49:15;17.20;99.90
59282;DHT22;45054;52.062;10.010;2023-08-01T13:51:41;17.40;99.90
59282;DHT22;45054;52.062;10.010;2023-08-01T13:54:07;17.60;99.90
59282;DHT22;45054;52.062;10.010;2023-08-01T13:56:32;18.00;99.90
59282;DHT22;45054;52.062;10.010;2023-08-01T13:58:58;18.40;99.90
59282;DHT22;45054;52.062;10.010;2023-08-01T14:01:23;18.60;99.90
59282;DHT22;45054;52.062;10.010;2023-08-01T14:03:49;18.60;99.90
59282;DHT22;45054;52.062;10.010;2023-08-01T14:06:14;18.60;99.90
59282;DHT22;45054;52.062;10.010;2023-08-01T14:08:41;18.60;99.90
59282;DHT22;45054;52.062;10.010;2023-08-01T14:11:07;18.60;99.90
59282;DHT22;45054;52.062;10.010;2023-08-01T14:13:33;18.60;99.90
59282;DHT22;45054;52.062;10.010;2023-08-01T14:15:59;18.80;99.90
59282;DHT22;45054;52.062;10.010;2023-08-01T14:18:24;19.00;99.90
59282;DHT22;45054;52.062;10.010;2023-08-01T14:20:50;19.00;99.90
59282;DHT22;45054;52.062;10.010;2023-08-01T14:23:15;18.90;99.90
59282;DHT22;45054;52.062;10.010;2023-08-01T14:25:42;18.70;99.90
59282;DHT22;45054;52.062;10.010;2023-08-01T14:28:08;18.60;99.90
59282;DHT22;45054;52.062;10.010;2023-08-01T14:30:33;18.40;99.90
59282;DHT22;45054;52.062;10.010;2023-08-01T14:32:59;18.40;99.90
59282;DHT22;45054;52.062;10.010;2023-08-01T14:35:27;18.20;99.90
59282;DHT22;45054;52.062;10.010;2023-08-01T14:37:53;18.20;99.90
59282;DHT22;45054;52.062;10.010;2023-08-01T14:40:18;18.00;99.90
59282;DHT22;45054;52.062;10.010;2023-08-01T14:42:45;17.70;99.90
59282;DHT22;45054;52.062;10.010;2023-08-01T14:45:10;17.30;99.90
59282;DHT22;45054;52.062;10.010;2023-08-01T14:47:36;17.00;99.90
59282;DHT22;45054;52.062;10.010;2023-08-01T14:50:01;16.90;99.90
59282;DHT22;45054;52.062;10.010;2023-08-01T14:52:27;16.70;99.90
59282;DHT22;45054;52.062;10.010;2023-08-01T14:54:52;16.60;99.90
59282;DHT22;45054;52.062;10.010;2023-08-01T14:57:18;16.80;99.90
59282;DHT22;45054;52.062;10.010;2023-08-01T14:59:45;17.10;99.90
59282;DHT22;45054;52.062;10.010;2023-08-01T15:02:10;17.50;99.90
59282;DHT22;45054;52.062;10.010;2023-08-01T15:04:35;17.80;99.90
59282;DHT22;45054;52.062;10.010;2023-08-01T15:07:01;17.90;99.90